Wetterdaten: Woche 21.07.08 - 27.07.08 (KW30)
Datum Zeit Temperatur Luftfeuchte Luftdruck Niederschlag Wind Richtung Sonnenschein Solar Taupunkt Windchill Windben
21.07.2008 00:00 14.4 C 78 % 1017.6 hPa 0.0 l/m 1.9 km/h (1 Bft) O-SO 0.00 h 0 W/m 10.7 C 14.4 C 3.4 km/h (1 Bft)
21.07.2008 01:00 14.5 C 77 % 1017.8 hPa 0.0 l/m 1.0 km/h (0 Bft) O-SO 0.00 h 0 W/m 10.6 C 14.5 C 2.1 km/h (1 Bft)
21.07.2008 02:00 14.0 C 79 % 1017.6 hPa 0.0 l/m 0.3 km/h (0 Bft) N-NW 0.00 h 0 W/m 10.5 C 14.0 C 1.5 km/h (1 Bft)
21.07.2008 03:00 14.0 C 77 % 1017.8 hPa 0.0 l/m 0.3 km/h (0 Bft) N-NW 0.00 h 0 W/m 10.1 C 14.0 C 1.1 km/h (1 Bft)
21.07.2008 04:00 13.3 C 80 % 1017.9 hPa 0.0 l/m 0.9 km/h (0 Bft) O-NO 0.00 h 0 W/m 10.0 C 13.3 C 2.1 km/h (1 Bft)
21.07.2008 05:00 12.8 C 79 % 1018.1 hPa 0.0 l/m 1.3 km/h (1 Bft) O-NO 0.00 h 5 W/m 9.2 C 12.8 C 2.9 km/h (1 Bft)
21.07.2008 06:00 12.4 C 80 % 1018.4 hPa 0.0 l/m 0.3 km/h (0 Bft) N-NO 0.02 h 25 W/m 8.9 C 12.4 C 0.7 km/h (0 Bft)
21.07.2008 07:00 12.8 C 80 % 1018.6 hPa 0.0 l/m 1.5 km/h (1 Bft) W 0.00 h 72 W/m 9.3 C 12.8 C 3.0 km/h (1 Bft)
21.07.2008 08:00 14.1 C 69 % 1019.1 hPa 0.0 l/m 9.5 km/h (2 Bft) W 0.30 h 215 W/m 8.4 C 14.1 C 15.8 km/h (3 Bft)
21.07.2008 09:00 16.3 C 61 % 1019.4 hPa 0.0 l/m 10.3 km/h (2 Bft) W 0.95 h 566 W/m 8.7 C 16.3 C 16.0 km/h (3 Bft)
21.07.2008 10:00 16.4 C 54 % 1019.8 hPa 0.0 l/m 11.4 km/h (2 Bft) W 0.28 h 385 W/m 7.1 C 16.4 C 17.7 km/h (3 Bft)
21.07.2008 11:00 16.7 C 50 % 1020.0 hPa 0.0 l/m 11.4 km/h (2 Bft) W 0.13 h 416 W/m 6.3 C 16.7 C 18.4 km/h (3 Bft)
21.07.2008 12:00 17.8 C 46 % 1019.8 hPa 0.0 l/m 14.0 km/h (3 Bft) W 0.78 h 780 W/m 6.1 C 17.8 C 21.8 km/h (4 Bft)
21.07.2008 13:00 19.0 C 43 % 1019.4 hPa 0.0 l/m 13.3 km/h (3 Bft) W 1.00 h 908 W/m 6.0 C 19.0 C 21.0 km/h (4 Bft)
21.07.2008 14:00 19.8 C 39 % 1019.2 hPa 0.0 l/m 13.5 km/h (3 Bft) W 0.93 h 870 W/m 5.4 C 19.8 C 21.6 km/h (4 Bft)
21.07.2008 15:00 19.2 C 41 % 1019.4 hPa 0.0 l/m 14.7 km/h (3 Bft) W 0.65 h 636 W/m 5.6 C 19.2 C 22.8 km/h (4 Bft)
21.07.2008 16:00 19.3 C 41 % 1019.6 hPa 0.0 l/m 14.9 km/h (3 Bft) W 0.60 h 515 W/m 5.8 C 19.3 C 22.4 km/h (4 Bft)
21.07.2008 17:00 20.0 C 39 % 1019.6 hPa 0.0 l/m 15.3 km/h (3 Bft) W 1.00 h 551 W/m 5.8 C 20.0 C 24.3 km/h (4 Bft)
21.07.2008 18:00 18.3 C 44 % 1020.0 hPa 0.0 l/m 14.5 km/h (3 Bft) W-NW 0.25 h 210 W/m 5.6 C 18.3 C 22.9 km/h (4 Bft)
21.07.2008 19:00 17.2 C 47 % 1020.5 hPa 0.0 l/m 14.3 km/h (3 Bft) W-NW 0.00 h 71 W/m 5.9 C 17.2 C 22.5 km/h (4 Bft)
21.07.2008 20:00 16.8 C 48 % 1020.9 hPa 0.0 l/m 11.6 km/h (2 Bft) W 0.05 h 26 W/m 5.8 C 16.8 C 18.0 km/h (3 Bft)
21.07.2008 21:00 16.2 C 52 % 1021.2 hPa 0.0 l/m 7.6 km/h (2 Bft) W-NW 0.00 h 0 W/m 6.3 C 16.2 C 12.2 km/h (2 Bft)
21.07.2008 22:00 15.1 C 58 % 1022.0 hPa 0.0 l/m 4.9 km/h (1 Bft) W-NW 0.00 h 0 W/m 6.9 C 15.1 C 8.4 km/h (2 Bft)
21.07.2008 23:00 14.4 C 63 % 1022.1 hPa 0.0 l/m 2.0 km/h (1 Bft) O-SO 0.00 h 0 W/m 7.5 C 14.4 C 3.1 km/h (1 Bft)
22.07.2008 00:00 13.9 C 67 % 1022.1 hPa 0.0 l/m 2.0 km/h (1 Bft) SO 0.00 h 0 W/m 7.9 C 13.9 C 3.8 km/h (1 Bft)
22.07.2008 01:00 13.7 C 69 % 1022.0 hPa 0.0 l/m 0.2 km/h (0 Bft) SO 0.00 h 0 W/m 8.1 C 13.7 C 0.7 km/h (0 Bft)
22.07.2008 02:00 13.4 C 70 % 1022.3 hPa 0.0 l/m 0.9 km/h (0 Bft) O 0.00 h 0 W/m 8.2 C 13.4 C 2.0 km/h (1 Bft)
22.07.2008 03:00 12.9 C 72 % 1022.3 hPa 0.0 l/m 0.4 km/h (0 Bft) S-SO 0.00 h 0 W/m 7.8 C 12.9 C 1.4 km/h (1 Bft)
22.07.2008 04:00 12.8 C 71 % 1022.3 hPa 0.0 l/m 1.6 km/h (1 Bft) W 0.00 h 0 W/m 7.7 C 12.8 C 3.1 km/h (1 Bft)
22.07.2008 05:00 12.9 C 70 % 1022.6 hPa 0.0 l/m 0.3 km/h (0 Bft) SW 0.00 h 5 W/m 7.5 C 12.9 C 1.2 km/h (1 Bft)
22.07.2008 06:00 12.9 C 71 % 1022.8 hPa 0.0 l/m 2.5 km/h (1 Bft) W 0.00 h 21 W/m 7.8 C 12.9 C 5.1 km/h (1 Bft)
22.07.2008 07:00 13.3 C 72 % 1023.3 hPa 0.0 l/m 3.9 km/h (1 Bft) W 0.00 h 67 W/m 8.4 C 13.3 C 6.7 km/h (2 Bft)
22.07.2008 08:00 13.1 C 77 % 1023.7 hPa 0.2 l/m 4.6 km/h (1 Bft) W 0.00 h 131 W/m 9.2 C 13.1 C 8.1 km/h (2 Bft)
22.07.2008 09:00 14.3 C 77 % 1023.8 hPa 0.0 l/m 4.7 km/h (1 Bft) W-NW 0.67 h 404 W/m 10.2 C 14.3 C 8.3 km/h (2 Bft)
22.07.2008 10:00 15.9 C 67 % 1023.6 hPa 0.0 l/m 9.2 km/h (2 Bft) W 0.80 h 631 W/m 9.7 C 15.9 C 15.5 km/h (3 Bft)
22.07.2008 11:00 16.5 C 63 % 1023.7 hPa 0.0 l/m 12.0 km/h (2 Bft) W 0.63 h 638 W/m 9.4 C 16.5 C 19.2 km/h (3 Bft)
22.07.2008 12:00 17.4 C 60 % 1023.7 hPa 0.0 l/m 11.8 km/h (2 Bft) W 0.80 h 792 W/m 9.6 C 17.4 C 19.0 km/h (3 Bft)
22.07.2008 13:00 18.4 C 59 % 1023.7 hPa 0.0 l/m 10.1 km/h (2 Bft) W 0.72 h 702 W/m 10.2 C 18.4 C 17.0 km/h (3 Bft)
22.07.2008 14:00 18.2 C 59 % 1023.7 hPa 0.0 l/m 11.7 km/h (2 Bft) W 0.20 h 468 W/m 10.0 C 18.2 C 18.7 km/h (3 Bft)
22.07.2008 15:00 19.0 C 57 % 1023.7 hPa 0.0 l/m 11.2 km/h (2 Bft) W 0.57 h 591 W/m 10.3 C 19.0 C 18.3 km/h (3 Bft)
22.07.2008 16:00 20.0 C 54 % 1023.6 hPa 0.0 l/m 13.4 km/h (3 Bft) W 1.00 h 766 W/m 10.4 C 20.0 C 21.9 km/h (4 Bft)
22.07.2008 17:00 19.7 C 56 % 1023.6 hPa 0.0 l/m 12.4 km/h (3 Bft) W 1.00 h 598 W/m 10.8 C 19.7 C 20.6 km/h (4 Bft)
22.07.2008 18:00 19.5 C 57 % 1023.6 hPa 0.0 l/m 11.9 km/h (2 Bft) W 1.00 h 367 W/m 10.8 C 19.5 C 18.9 km/h (3 Bft)
22.07.2008 19:00 18.4 C 58 % 1023.6 hPa 0.0 l/m 11.8 km/h (2 Bft) W-NW 0.72 h 175 W/m 9.8 C 18.4 C 18.6 km/h (3 Bft)
22.07.2008 20:00 17.0 C 62 % 1023.9 hPa 0.0 l/m 5.0 km/h (1 Bft) W-NW 0.03 h 38 W/m 9.7 C 17.0 C 7.8 km/h (2 Bft)
22.07.2008 21:00 15.3 C 68 % 1024.3 hPa 0.0 l/m 1.4 km/h (1 Bft) W-NW 0.00 h 6 W/m 9.5 C 15.3 C 2.7 km/h (1 Bft)
22.07.2008 22:00 13.8 C 76 % 1024.7 hPa 0.0 l/m 2.2 km/h (1 Bft) O-SO 0.00 h 0 W/m 9.5 C 13.8 C 3.5 km/h (1 Bft)
22.07.2008 23:00 13.4 C 80 % 1025.1 hPa 0.0 l/m 2.1 km/h (1 Bft) SO 0.00 h 0 W/m 10.0 C 13.4 C 3.5 km/h (1 Bft)
23.07.2008 00:00 13.5 C 81 % 1025.0 hPa 0.0 l/m 0.4 km/h (0 Bft) SO 0.00 h 0 W/m 10.2 C 13.5 C 1.0 km/h (0 Bft)
23.07.2008 01:00 13.6 C 80 % 1025.0 hPa 0.0 l/m 0.9 km/h (0 Bft) W-NW 0.00 h 0 W/m 10.2 C 13.6 C 1.7 km/h (1 Bft)
23.07.2008 02:00 13.8 C 79 % 1024.6 hPa 0.0 l/m 0.1 km/h (0 Bft) W-NW 0.00 h 0 W/m 10.1 C 13.8 C 0.6 km/h (0 Bft)
23.07.2008 03:00 13.5 C 79 % 1024.1 hPa 0.0 l/m 0.0 km/h (0 Bft) W-NW 0.00 h 0 W/m 9.9 C 13.5 C 0.3 km/h (0 Bft)
23.07.2008 04:00 13.1 C 82 % 1024.1 hPa 0.0 l/m 0.1 km/h (0 Bft) SW 0.00 h 0 W/m 10.0 C 13.1 C 0.4 km/h (0 Bft)
23.07.2008 05:00 12.3 C 85 % 1023.9 hPa 0.0 l/m 0.2 km/h (0 Bft) W-NW 0.00 h 5 W/m 9.8 C 12.3 C 0.9 km/h (0 Bft)
23.07.2008 06:00 11.8 C 87 % 1024.2 hPa 0.0 l/m 0.0 km/h (0 Bft) N 0.02 h 18 W/m 9.7 C 11.8 C 0.3 km/h (0 Bft)
23.07.2008 07:00 12.2 C 88 % 1024.2 hPa 0.0 l/m 0.4 km/h (0 Bft) W-NW 0.38 h 104 W/m 10.3 C 12.2 C 1.4 km/h (1 Bft)
23.07.2008 08:00 14.9 C 78 % 1024.0 hPa 0.0 l/m 0.7 km/h (0 Bft) W-NW 1.00 h 315 W/m 11.0 C 14.9 C 2.1 km/h (1 Bft)
23.07.2008 09:00 16.9 C 70 % 1023.8 hPa 0.0 l/m 2.1 km/h (1 Bft) O-SO 1.00 h 490 W/m 11.4 C 16.9 C 4.6 km/h (1 Bft)
23.07.2008 10:00 18.4 C 62 % 1023.5 hPa 0.0 l/m 7.7 km/h (2 Bft) O-SO 1.00 h 665 W/m 11.0 C 18.4 C 12.9 km/h (3 Bft)
23.07.2008 11:00 19.7 C 56 % 1023.1 hPa 0.0 l/m 4.8 km/h (1 Bft) O-SO 0.90 h 746 W/m 10.8 C 19.7 C 9.3 km/h (2 Bft)
23.07.2008 12:00 20.9 C 52 % 1022.8 hPa 0.0 l/m 10.0 km/h (2 Bft) O-SO 1.00 h 880 W/m 10.5 C 20.9 C 17.0 km/h (3 Bft)
23.07.2008 13:00 21.4 C 47 % 1022.5 hPa 0.0 l/m 10.5 km/h (2 Bft) O-SO 1.00 h 916 W/m 9.6 C 21.4 C 17.4 km/h (3 Bft)
23.07.2008 14:00 21.8 C 44 % 1021.8 hPa 0.0 l/m 11.1 km/h (2 Bft) O-SO 0.93 h 858 W/m 8.9 C 21.8 C 17.0 km/h (3 Bft)
23.07.2008 15:00 22.3 C 43 % 1021.5 hPa 0.0 l/m 10.5 km/h (2 Bft) O-SO 0.88 h 788 W/m 9.1 C 22.3 C 17.0 km/h (3 Bft)
23.07.2008 16:00 22.7 C 42 % 1021.3 hPa 0.0 l/m 8.2 km/h (2 Bft) O-SO 0.85 h 613 W/m 9.0 C 22.7 C 14.2 km/h (3 Bft)
23.07.2008 17:00 22.7 C 40 % 1021.0 hPa 0.0 l/m 10.8 km/h (2 Bft) O-SO 1.00 h 521 W/m 8.5 C 22.7 C 18.0 km/h (3 Bft)
23.07.2008 18:00 22.3 C 41 % 1020.6 hPa 0.0 l/m 10.1 km/h (2 Bft) O-SO 1.00 h 353 W/m 8.5 C 22.3 C 16.6 km/h (3 Bft)
23.07.2008 19:00 21.6 C 44 % 1020.2 hPa 0.0 l/m 5.7 km/h (1 Bft) O-SO 1.00 h 186 W/m 8.7 C 21.6 C 10.5 km/h (2 Bft)
23.07.2008 20:00 20.5 C 49 % 1020.1 hPa 0.0 l/m 1.9 km/h (1 Bft) O 0.12 h 43 W/m 9.3 C 20.5 C 4.4 km/h (1 Bft)
23.07.2008 21:00 18.6 C 56 % 1020.0 hPa 0.0 l/m 0.5 km/h (0 Bft) O 0.02 h 7 W/m 9.6 C 18.6 C 1.8 km/h (1 Bft)
23.07.2008 22:00 16.9 C 63 % 1020.1 hPa 0.0 l/m 1.9 km/h (1 Bft) O 0.00 h 0 W/m 9.8 C 16.9 C 3.5 km/h (1 Bft)
23.07.2008 23:00 16.0 C 66 % 1020.0 hPa 0.0 l/m 0.9 km/h (0 Bft) O 0.00 h 0 W/m 9.7 C 16.0 C 3.3 km/h (1 Bft)
24.07.2008 00:00 15.9 C 66 % 1019.5 hPa 0.0 l/m 1.1 km/h (1 Bft) O-NO 0.00 h 0 W/m 9.6 C 15.9 C 3.3 km/h (1 Bft)
24.07.2008 01:00 15.3 C 69 % 1019.0 hPa 0.0 l/m 2.2 km/h (1 Bft) N 0.00 h 0 W/m 9.6 C 15.3 C 5.5 km/h (1 Bft)
24.07.2008 02:00 15.3 C 67 % 1018.4 hPa 0.0 l/m 4.4 km/h (1 Bft) NO 0.00 h 0 W/m 9.2 C 15.3 C 8.2 km/h (2 Bft)
24.07.2008 03:00 15.2 C 67 % 1018.1 hPa 0.0 l/m 3.2 km/h (1 Bft) NO 0.00 h 0 W/m 9.1 C 15.2 C 6.6 km/h (2 Bft)
24.07.2008 04:00 14.5 C 70 % 1017.5 hPa 0.0 l/m 2.0 km/h (1 Bft) NO 0.00 h 0 W/m 9.0 C 14.5 C 5.1 km/h (1 Bft)
24.07.2008 05:00 13.7 C 72 % 1017.3 hPa 0.0 l/m 1.3 km/h (1 Bft) O-SO 0.00 h 5 W/m 8.8 C 13.7 C 2.9 km/h (1 Bft)
24.07.2008 06:00 12.5 C 79 % 1017.4 hPa 0.0 l/m 2.5 km/h (1 Bft) O-SO 0.02 h 16 W/m 9.0 C 12.5 C 3.5 km/h (1 Bft)
24.07.2008 07:00 13.9 C 78 % 1017.0 hPa 0.0 l/m 0.7 km/h (0 Bft) NO 0.67 h 131 W/m 10.0 C 13.9 C 1.9 km/h (1 Bft)
24.07.2008 08:00 17.3 C 63 % 1016.9 hPa 0.0 l/m 4.0 km/h (1 Bft) O 1.00 h 319 W/m 10.3 C 17.3 C 8.4 km/h (2 Bft)
24.07.2008 09:00 18.7 C 59 % 1016.7 hPa 0.0 l/m 7.0 km/h (2 Bft) O-SO 1.00 h 486 W/m 10.5 C 18.7 C 14.7 km/h (3 Bft)
24.07.2008 10:00 20.4 C 55 % 1016.3 hPa 0.0 l/m 6.2 km/h (2 Bft) O 1.00 h 633 W/m 11.1 C 20.4 C 12.4 km/h (3 Bft)
24.07.2008 11:00 21.9 C 50 % 1015.7 hPa 0.0 l/m 8.5 km/h (2 Bft) O-SO 1.00 h 750 W/m 11.0 C 21.9 C 16.1 km/h (3 Bft)
24.07.2008 12:00 23.1 C 47 % 1015.0 hPa 0.0 l/m 10.5 km/h (2 Bft) O-SO 1.00 h 826 W/m 11.1 C 23.1 C 18.7 km/h (3 Bft)
24.07.2008 13:00 24.0 C 45 % 1014.5 hPa 0.0 l/m 10.9 km/h (2 Bft) O-SO 0.98 h 859 W/m 11.5 C 24.0 C 18.7 km/h (3 Bft)
24.07.2008 14:00 24.5 C 44 % 1014.1 hPa 0.0 l/m 8.3 km/h (2 Bft) O-SO 1.00 h 854 W/m 11.4 C 24.5 C 15.0 km/h (3 Bft)
24.07.2008 15:00 24.9 C 43 % 1013.8 hPa 0.0 l/m 10.7 km/h (2 Bft) O-SO 0.82 h 715 W/m 11.4 C 24.9 C 17.7 km/h (3 Bft)
24.07.2008 16:00 25.0 C 42 % 1013.6 hPa 0.0 l/m 10.1 km/h (2 Bft) O-SO 0.82 h 610 W/m 11.1 C 25.0 C 17.1 km/h (3 Bft)
24.07.2008 17:00 25.2 C 40 % 1013.4 hPa 0.0 l/m 11.2 km/h (2 Bft) O-SO 1.00 h 510 W/m 10.7 C 25.2 C 17.8 km/h (3 Bft)
24.07.2008 18:00 24.8 C 41 % 1013.4 hPa 0.0 l/m 7.9 km/h (2 Bft) O-SO 1.00 h 344 W/m 10.8 C 24.8 C 14.0 km/h (3 Bft)
24.07.2008 19:00 24.0 C 44 % 1013.1 hPa 0.0 l/m 7.1 km/h (2 Bft) O-SO 0.98 h 182 W/m 11.0 C 24.0 C 13.0 km/h (3 Bft)
24.07.2008 20:00 22.9 C 47 % 1013.0 hPa 0.0 l/m 3.3 km/h (1 Bft) O 0.05 h 38 W/m 11.1 C 22.9 C 7.4 km/h (2 Bft)
24.07.2008 21:00 21.4 C 53 % 1013.1 hPa 0.0 l/m 3.7 km/h (1 Bft) NO 0.00 h 6 W/m 11.4 C 21.4 C 8.0 km/h (2 Bft)
24.07.2008 22:00 20.0 C 58 % 1013.2 hPa 0.0 l/m 2.7 km/h (1 Bft) NO 0.00 h 0 W/m 11.6 C 20.0 C 6.5 km/h (2 Bft)
24.07.2008 23:00 18.8 C 64 % 1013.2 hPa 0.0 l/m 1.6 km/h (1 Bft) N-NO 0.00 h 0 W/m 11.7 C 18.8 C 3.9 km/h (1 Bft)
25.07.2008 00:00 17.0 C 71 % 1013.1 hPa 0.0 l/m 0.3 km/h (0 Bft) NO 0.00 h 0 W/m 11.7 C 17.0 C 1.3 km/h (1 Bft)
25.07.2008 01:00 16.2 C 74 % 1013.1 hPa 0.0 l/m 0.4 km/h (0 Bft) N 0.00 h 0 W/m 11.4 C 16.2 C 1.3 km/h (1 Bft)
25.07.2008 02:00 15.1 C 78 % 1013.1 hPa 0.0 l/m 0.4 km/h (0 Bft) N 0.00 h 0 W/m 11.4 C 15.1 C 1.2 km/h (1 Bft)
25.07.2008 03:00 14.4 C 82 % 1013.2 hPa 0.0 l/m 0.3 km/h (0 Bft) NO 0.00 h 0 W/m 11.4 C 14.4 C 0.9 km/h (0 Bft)
25.07.2008 04:00 13.4 C 86 % 1012.9 hPa 0.0 l/m 1.8 km/h (1 Bft) NO 0.00 h 0 W/m 11.1 C 13.4 C 3.2 km/h (1 Bft)
25.07.2008 05:00 12.8 C 89 % 1013.1 hPa 0.0 l/m 1.7 km/h (1 Bft) O-SO 0.00 h 5 W/m 11.1 C 12.8 C 2.8 km/h (1 Bft)
25.07.2008 06:00 12.4 C 91 % 1013.4 hPa 0.0 l/m 0.5 km/h (0 Bft) O-SO 0.00 h 19 W/m 11.0 C 12.4 C 1.4 km/h (1 Bft)
25.07.2008 07:00 13.9 C 88 % 1013.2 hPa 0.0 l/m 0.0 km/h (0 Bft) N 0.63 h 123 W/m 12.0 C 13.9 C 0.0 km/h (0 Bft)
25.07.2008 08:00 17.1 C 78 % 1012.8 hPa 0.0 l/m 0.9 km/h (0 Bft) O-SO 1.00 h 296 W/m 13.1 C 17.1 C 2.1 km/h (1 Bft)
25.07.2008 09:00 18.8 C 71 % 1012.5 hPa 0.0 l/m 3.3 km/h (1 Bft) O-SO 1.00 h 461 W/m 13.5 C 18.8 C 6.4 km/h (2 Bft)
25.07.2008 10:00 20.6 C 66 % 1012.4 hPa 0.0 l/m 2.2 km/h (1 Bft) O-SO 1.00 h 611 W/m 14.0 C 20.6 C 5.0 km/h (1 Bft)
25.07.2008 11:00 22.5 C 61 % 1012.1 hPa 0.0 l/m 2.7 km/h (1 Bft) W-NW 1.00 h 729 W/m 14.6 C 22.5 C 5.0 km/h (1 Bft)
25.07.2008 12:00 24.3 C 55 % 1011.4 hPa 0.0 l/m 3.1 km/h (1 Bft) W 1.00 h 809 W/m 14.7 C 24.3 C 5.7 km/h (1 Bft)
25.07.2008 13:00 25.4 C 49 % 1010.9 hPa 0.0 l/m 2.3 km/h (1 Bft) O-SO 1.00 h 847 W/m 14.0 C 25.4 C 4.8 km/h (1 Bft)
25.07.2008 14:00 27.2 C 41 % 1010.5 hPa 0.0 l/m 2.8 km/h (1 Bft) W-NW 1.00 h 843 W/m 12.9 C 27.2 C 5.2 km/h (1 Bft)
25.07.2008 15:00 28.7 C 36 % 1010.3 hPa 0.0 l/m 4.3 km/h (1 Bft) N-NW 1.00 h 762 W/m 12.3 C 28.7 C 7.0 km/h (2 Bft)
25.07.2008 16:00 29.3 C 38 % 1010.0 hPa 0.0 l/m 4.4 km/h (1 Bft) N-NW 1.00 h 648 W/m 13.5 C 29.3 C 7.1 km/h (2 Bft)
25.07.2008 17:00 29.7 C 34 % 1009.8 hPa 0.0 l/m 4.6 km/h (1 Bft) N-NW 1.00 h 508 W/m 11.9 C 29.7 C 7.5 km/h (2 Bft)
25.07.2008 18:00 29.1 C 31 % 1009.7 hPa 0.0 l/m 5.8 km/h (2 Bft) W 1.00 h 339 W/m 10.0 C 29.1 C 8.8 km/h (2 Bft)
25.07.2008 19:00 27.4 C 34 % 1009.7 hPa 0.0 l/m 6.7 km/h (2 Bft) W 0.78 h 162 W/m 10.0 C 27.4 C 10.0 km/h (2 Bft)
25.07.2008 20:00 25.2 C 39 % 1009.7 hPa 0.0 l/m 1.8 km/h (1 Bft) W-NW 0.00 h 27 W/m 10.0 C 25.2 C 3.4 km/h (1 Bft)
25.07.2008 21:00 22.4 C 51 % 1010.5 hPa 0.0 l/m 2.8 km/h (1 Bft) O-SO 0.00 h 0 W/m 11.7 C 22.4 C 4.4 km/h (1 Bft)
25.07.2008 22:00 19.9 C 62 % 1011.3 hPa 0.0 l/m 2.5 km/h (1 Bft) O-SO 0.00 h 0 W/m 12.5 C 19.9 C 4.0 km/h (1 Bft)
25.07.2008 23:00 18.9 C 65 % 1011.5 hPa 0.0 l/m 1.9 km/h (1 Bft) O 0.00 h 0 W/m 12.2 C 18.9 C 3.2 km/h (1 Bft)
26.07.2008 00:00 17.9 C 70 % 1011.6 hPa 0.0 l/m 1.0 km/h (0 Bft) O 0.00 h 0 W/m 12.3 C 17.9 C 2.2 km/h (1 Bft)
26.07.2008 01:00 17.0 C 74 % 1011.3 hPa 0.0 l/m 0.6 km/h (0 Bft) O 0.00 h 0 W/m 12.4 C 17.0 C 1.5 km/h (1 Bft)
26.07.2008 02:00 16.5 C 78 % 1010.8 hPa 0.0 l/m 1.7 km/h (1 Bft) O 0.00 h 0 W/m 12.6 C 16.5 C 3.0 km/h (1 Bft)
26.07.2008 03:00 15.8 C 82 % 1010.8 hPa 0.0 l/m 1.2 km/h (1 Bft) O 0.00 h 0 W/m 12.7 C 15.8 C 2.5 km/h (1 Bft)
26.07.2008 04:00 15.4 C 84 % 1010.8 hPa 0.0 l/m 0.3 km/h (0 Bft) O 0.00 h 0 W/m 12.7 C 15.4 C 0.8 km/h (0 Bft)
26.07.2008 05:00 15.0 C 87 % 1011.3 hPa 0.0 l/m 1.2 km/h (1 Bft) O 0.00 h 0 W/m 12.9 C 15.0 C 2.4 km/h (1 Bft)
26.07.2008 06:00 15.2 C 89 % 1011.8 hPa 0.0 l/m 0.3 km/h (0 Bft) O 0.02 h 24 W/m 13.4 C 15.2 C 0.8 km/h (0 Bft)
26.07.2008 07:00 16.1 C 87 % 1012.1 hPa 0.0 l/m 0.4 km/h (0 Bft) O 0.00 h 84 W/m 13.9 C 16.1 C 1.5 km/h (1 Bft)
26.07.2008 08:00 17.8 C 83 % 1012.4 hPa 0.0 l/m 0.1 km/h (0 Bft) O 0.57 h 251 W/m 14.9 C 17.8 C 1.0 km/h (0 Bft)
26.07.2008 09:00 21.2 C 73 % 1012.4 hPa 0.0 l/m 2.3 km/h (1 Bft) O 1.00 h 493 W/m 16.0 C 21.2 C 4.3 km/h (1 Bft)
26.07.2008 10:00 22.7 C 68 % 1012.0 hPa 0.0 l/m 2.0 km/h (1 Bft) NW 0.45 h 431 W/m 16.4 C 22.7 C 4.0 km/h (1 Bft)
26.07.2008 11:00 25.0 C 61 % 1011.8 hPa 0.0 l/m 2.9 km/h (1 Bft) W-NW 1.00 h 672 W/m 17.0 C 25.0 C 5.0 km/h (1 Bft)
26.07.2008 12:00 27.5 C 51 % 1011.3 hPa 0.0 l/m 3.1 km/h (1 Bft) SO 1.00 h 794 W/m 16.3 C 27.5 C 5.9 km/h (2 Bft)
26.07.2008 13:00 27.0 C 48 % 1011.3 hPa 0.0 l/m 5.8 km/h (2 Bft) SO 0.22 h 441 W/m 14.9 C 27.0 C 9.1 km/h (2 Bft)
26.07.2008 14:00 28.0 C 47 % 1011.2 hPa 0.0 l/m 3.8 km/h (1 Bft) W-NW 0.88 h 615 W/m 15.7 C 28.0 C 6.2 km/h (2 Bft)
26.07.2008 15:00 29.0 C 43 % 1010.8 hPa 0.0 l/m 8.6 km/h (2 Bft) N-NW 0.78 h 638 W/m 15.2 C 29.0 C 14.0 km/h (3 Bft)
26.07.2008 16:00 23.5 C 66 % 1011.4 hPa 1.6 l/m 4.4 km/h (1 Bft) O-SO 0.10 h 208 W/m 16.4 C 23.5 C 9.2 km/h (2 Bft)
26.07.2008 17:00 20.6 C 81 % 1012.3 hPa 0.0 l/m 1.8 km/h (1 Bft) S-SW 0.00 h 150 W/m 17.1 C 20.6 C 3.7 km/h (1 Bft)
26.07.2008 18:00 21.4 C 78 % 1012.1 hPa 0.0 l/m 0.5 km/h (0 Bft) O-SO 0.00 h 121 W/m 17.5 C 21.4 C 1.4 km/h (1 Bft)
26.07.2008 19:00 21.6 C 76 % 1012.4 hPa 0.0 l/m 1.9 km/h (1 Bft) O-SO 0.00 h 64 W/m 17.3 C 21.6 C 3.2 km/h (1 Bft)
26.07.2008 20:00 21.0 C 81 % 1012.8 hPa 0.0 l/m 0.1 km/h (0 Bft) O-SO 0.00 h 28 W/m 17.6 C 21.0 C 0.7 km/h (0 Bft)
26.07.2008 21:00 20.1 C 85 % 1013.0 hPa 0.0 l/m 2.3 km/h (1 Bft) N-NW 0.00 h 0 W/m 17.5 C 20.1 C 4.8 km/h (1 Bft)
26.07.2008 22:00 20.2 C 81 % 1013.1 hPa 0.0 l/m 2.1 km/h (1 Bft) O-SO 0.00 h 0 W/m 16.8 C 20.2 C 3.6 km/h (1 Bft)
26.07.2008 23:00 19.3 C 85 % 1013.3 hPa 0.0 l/m 1.0 km/h (0 Bft) W-SW 0.00 h 0 W/m 16.7 C 19.3 C 2.1 km/h (1 Bft)
27.07.2008 00:00 18.6 C 87 % 1013.3 hPa 0.0 l/m 0.8 km/h (0 Bft) SO 0.00 h 0 W/m 16.4 C 18.6 C 1.3 km/h (1 Bft)
27.07.2008 01:00 17.9 C 91 % 1013.5 hPa 0.4 l/m 0.6 km/h (0 Bft) W-NW 0.00 h 0 W/m 16.4 C 17.9 C 1.8 km/h (1 Bft)
27.07.2008 02:00 17.8 C 94 % 1013.9 hPa 0.8 l/m 0.9 km/h (0 Bft) W-NW 0.00 h 0 W/m 16.8 C 17.8 C 1.8 km/h (1 Bft)
27.07.2008 03:00 17.5 C 96 % 1014.4 hPa 0.0 l/m 0.6 km/h (0 Bft) S-SO 0.00 h 0 W/m 16.9 C 17.5 C 1.9 km/h (1 Bft)
27.07.2008 04:00 17.2 C 97 % 1014.7 hPa 0.0 l/m 0.6 km/h (0 Bft) S-SO 0.00 h 0 W/m 16.8 C 17.2 C 1.4 km/h (1 Bft)
27.07.2008 05:00 17.1 C 97 % 1014.6 hPa 0.0 l/m 0.8 km/h (0 Bft) SO 0.00 h 0 W/m 16.7 C 17.1 C 1.8 km/h (1 Bft)
27.07.2008 06:00 16.8 C 98 % 1014.8 hPa 0.0 l/m 0.3 km/h (0 Bft) SO 0.00 h 14 W/m 16.5 C 16.8 C 1.5 km/h (1 Bft)
27.07.2008 07:00 17.2 C 98 % 1014.9 hPa 0.0 l/m 0.3 km/h (0 Bft) SO 0.00 h 50 W/m 17.0 C 17.2 C 1.4 km/h (1 Bft)
27.07.2008 08:00 18.0 C 97 % 1015.2 hPa 0.0 l/m 0.1 km/h (0 Bft) SO 0.00 h 131 W/m 17.6 C 18.0 C 0.6 km/h (0 Bft)
27.07.2008 09:00 18.5 C 96 % 1015.4 hPa 0.0 l/m 0.1 km/h (0 Bft) W-SW 0.00 h 99 W/m 17.8 C 18.5 C 0.7 km/h (0 Bft)
27.07.2008 10:00 18.9 C 93 % 1015.5 hPa 0.0 l/m 0.1 km/h (0 Bft) W-SW 0.00 h 154 W/m 17.8 C 18.9 C 0.4 km/h (0 Bft)
27.07.2008 11:00 20.5 C 86 % 1015.6 hPa 0.0 l/m 0.9 km/h (0 Bft) W-SW 0.32 h 367 W/m 18.1 C 20.5 C 2.7 km/h (1 Bft)
27.07.2008 12:00 22.5 C 76 % 1015.3 hPa 0.0 l/m 2.6 km/h (1 Bft) O-SO 0.33 h 474 W/m 18.1 C 22.5 C 5.1 km/h (1 Bft)
27.07.2008 13:00 24.0 C 71 % 1014.8 hPa 0.0 l/m 1.8 km/h (1 Bft) O-SO 0.33 h 472 W/m 18.4 C 24.0 C 4.4 km/h (1 Bft)
27.07.2008 14:00 25.6 C 64 % 1014.1 hPa 0.0 l/m 3.7 km/h (1 Bft) SO 0.77 h 753 W/m 18.2 C 25.6 C 7.0 km/h (2 Bft)
27.07.2008 15:00 26.5 C 59 % 1013.6 hPa 0.0 l/m 4.4 km/h (1 Bft) O-SO 0.87 h 689 W/m 17.8 C 26.5 C 8.2 km/h (2 Bft)
27.07.2008 16:00 27.1 C 53 % 1013.2 hPa 0.0 l/m 6.1 km/h (2 Bft) O-SO 0.97 h 624 W/m 16.8 C 27.1 C 10.7 km/h (2 Bft)
27.07.2008 17:00 27.4 C 49 % 1013.2 hPa 0.0 l/m 3.8 km/h (1 Bft) O-SO 0.80 h 454 W/m 15.8 C 27.4 C 6.6 km/h (2 Bft)
27.07.2008 18:00 26.5 C 56 % 1013.0 hPa 0.0 l/m 5.2 km/h (1 Bft) O-SO 0.17 h 178 W/m 16.8 C 26.5 C 9.2 km/h (2 Bft)
27.07.2008 19:00 25.0 C 63 % 1013.2 hPa 0.0 l/m 2.9 km/h (1 Bft) N 0.10 h 96 W/m 17.4 C 25.0 C 6.3 km/h (2 Bft)
27.07.2008 20:00 24.1 C 68 % 1013.6 hPa 0.0 l/m 1.3 km/h (1 Bft) W-SW 0.03 h 32 W/m 17.8 C 24.1 C 3.2 km/h (1 Bft)
27.07.2008 21:00 23.0 C 73 % 1014.1 hPa 0.0 l/m 0.3 km/h (0 Bft) N-NW 0.00 h 5 W/m 18.0 C 23.0 C 1.3 km/h (1 Bft)
27.07.2008 22:00 22.3 C 78 % 1014.1 hPa 0.0 l/m 0.0 km/h (0 Bft) N-NW 0.00 h 0 W/m 18.3 C 22.3 C 0.1 km/h (0 Bft)
27.07.2008 23:00 21.5 C 83 % 1014.1 hPa 0.0 l/m 0.1 km/h (0 Bft) N-NO 0.00 h 0 W/m 18.4 C 21.5 C 0.5 km/h (0 Bft)
Min-Datum _ 23.07.08 25.07.08 25.07.08 - 21.07.08 - - - 21.07.08 23.07.08 21.07.08
_ Min-Zeit 07:03 18:00 19:15 - 00:00 - - - 14:28 07:03 00:12
Minimum _ 11.4 C 28 % 1009.5 hPa - 0.0 km/h (0 Bft) - - - 3.7 C 11.4 C 0.0 km/h (0 Bft)
Max-Datum _ 25.07.08 27.07.08 22.07.08 26.07.08 21.07.08 - 21.07.08 22.07.08 27.07.08 25.07.08 21.07.08
_ Max-Zeit 17:37 06:43 23:15 16:20 13:24 - 06:05 13:59 14:49 17:37 19:44
Maximum _ 30.2 C 99 % 1025.2 hPa 1.6 l/m 26.1 km/h
W (4 Bft)
- 0.02 h 1172 W/m 19.8 C 30.2 C 40.0 km/h
W (6 Bft)
Durchschnitt _ 18.8 C 66 % 1017.0 hPa #3.0 l/m 4.2 km/h (1 Bft) O-SO #62:38 h 388 W/m 11.7 C 18.8 C 7.4 km/h (2 Bft)
© Kaiko 2008